Rosebud, Texas
Current Conditions -  °F | °C
As of 2:15 AM on Thursday 27 Nov 2014 (Local Time) from KT35 Reporting Station
Clear Clear  
Wind Chill: 44°   Ceiling: Unl
Heat Index: 46°   Visibility: 10mi
Dew Point: 38°   Wind: 5mph
Humidity: 72%   Direction: 10°N
Pressure: 30.39"   Gusts: NA
Location:  31.07°N, 96.98°W
Report Text: KT35 270815Z AUTO 01004KT 10SM CLR 08/03 A3039 RMK AO2 T00780031
Loading
Personal Weather Stations






























Interactive Weather Map New forecast layout! Learn more

10-Day Weather Forecast

Advertisements
Track Severe Weather on mobile